• Join FlightAware (Why Join?)
  • Login
  • US Flag 
11:38AM EDT


 

Airport Tracker/Info


-or-


 

Live Flight TrackerFlight Track Log ✈ N601AA ✈ 09-Jun-2014 ✈ KLEX - KSEA

Flight Track Log - Related Links

Times and Time Zones

All times are in EDT time to prevent confusion due to time zone crossing. See the N601AA flight status page for this flight to view local times or setup timezone preferences in your user account.

Time Position Orientation Groundspeed Altitude Reporting Facility
EDT Latitude Longitude Course Direction KTS MPH feet Rate Location/Type
10:33PM 37.9539 -84.7725 251° West 323 372 5,400  Level Indianapolis Center
10:34PM 37.9592 -84.8778 274° West 307 353 8,600 3,060 Climbing Indianapolis Center
10:35PM 37.9650 -84.9875 274° West 307 353 11,700 2,880 Climbing Indianapolis Center
10:36PM 38.0003 -85.1042 291° West 324 373 14,500 2,400 Climbing Indianapolis Center
10:37PM 38.0359 -84.6069 122° Southeast  Level FlightAware Approximate
10:37PM 38.0425 -85.1933 301° West 333 383 16,700  Level Indianapolis Center
10:38PM 38.1025 -85.3169 302° West 357 411 18,800 1,920 Climbing Indianapolis Center
10:39PM 38.1592 -85.4269 303° West 366 421 20,700 1,560 Climbing Indianapolis Center
10:40PM 38.2172 -85.5433 302° West 381 438 22,100 1,560 Climbing Indianapolis Center
10:41PM 38.2764 -85.6594 303° West 389 448 23,900 1,440 Climbing Indianapolis Center
10:42PM 38.3350 -85.7775 302° West 389 448 25,100 1,080 Climbing Indianapolis Center
10:43PM 38.3950 -85.8994 302° West 401 461 26,200 1,080 Climbing Indianapolis Center
10:44PM 38.4567 -86.0228 303° West 406 467 27,300 960 Climbing Indianapolis Center
10:45PM 38.5183 -86.1472 302° West 411 473 28,200 900 Climbing Indianapolis Center
10:46PM 38.5803 -86.2739 302° West 416 479 29,200 780 Climbing Indianapolis Center
10:47PM 38.6431 -86.4025 302° West 422 486 29,900 720 Climbing Indianapolis Center
10:48PM 38.7053 -86.5303 302° West 424 488 30,700 660 Climbing Indianapolis Center
10:49PM 38.7808 -86.6853 302° West 425 489 31,300 600 Climbing Indianapolis Center
10:50PM 38.8439 -86.8167 302° West 429 494 32,000 780 Climbing Indianapolis Center
10:51PM 38.9072 -86.9469 302° West 429 494 32,900 660 Climbing Indianapolis Center
10:52PM 38.9697 -87.0756 302° West 429 494 33,400 540 Climbing Indianapolis Center
10:53PM 39.0325 -87.2069 302° West 429 494 34,000 540 Climbing Indianapolis Center
10:55PM 39.0953 -87.3392 301° West 430 495 34,500 480 Climbing Indianapolis Center
10:56PM 39.1550 -87.4642 302° West 430 495 35,000 480 Climbing Indianapolis Center
10:57PM 39.2183 -87.5989 301° West 435 501 35,600 480 Climbing Indianapolis Center
10:58PM 39.2853 -87.7400 302° West 435 501 36,000 180 Climbing Indianapolis Center
10:59PM 39.3494 -87.8750 302° West 436 502 36,000  Level Indianapolis Center
11:00PM 39.4219 -88.0325 301° West 441 507 36,000  Level Indianapolis Center
11:01PM 39.4739 -88.1508 300° West 440 506 36,000  Level Kansas City Center
11:02PM 39.5344 -88.2897 300° West 440 506 36,000  Level Kansas City Center
11:03PM 39.5992 -88.4261 302° West 440 506 36,000  Level Kansas City Center
11:04PM 39.6608 -88.5628 300° West 441 507 36,000  Level Kansas City Center
11:05PM 39.7250 -88.7025 301° West 446 513 36,000  Level Kansas City Center
11:06PM 39.7872 -88.8428 300° West 446 513 36,000  Level Kansas City Center
11:07PM 39.8494 -88.9839 300° West 446 513 36,000  Level Kansas City Center
11:08PM 39.9253 -89.1522 300° West 447 514 36,000  Level Kansas City Center
11:09PM 39.9906 -89.2900 302° West 447 514 36,000  Level Kansas City Center
11:10PM 40.0531 -89.4333 300° West 451 519 36,000  Level Kansas City Center
11:11PM 40.1172 -89.5750 301° West 451 519 36,000  Level Kansas City Center
11:11PM 40.1539 -89.6608 299° West 449 517 36,000  Level Chicago Center
11:12PM 40.2306 -89.8350 300° West 458 527 36,000  Level Chicago Center
11:14PM 40.2942 -89.9797 300° West 458 527 36,000  Level Chicago Center
11:15PM 40.3569 -90.1267 299° West 458 527 36,000  Level Chicago Center
11:16PM 40.4208 -90.2733 300° West 458 527 36,000  Level Chicago Center
11:17PM 40.4856 -90.4186 300° West 459 528 36,000  Level Chicago Center
11:18PM 40.5481 -90.5647 299° West 458 527 36,000  Level Chicago Center
11:19PM 40.6100 -90.7117 299° West 458 527 36,000  Level Chicago Center
11:20PM 40.6733 -90.8589 300° West 459 528 36,000  Level Chicago Center
11:21PM 40.7356 -91.0056 299° West 459 528 36,000  Level Chicago Center
11:22PM 40.7975 -91.1528 299° West 459 528 36,000  Level Chicago Center
11:23PM 40.8622 -91.3056 299° West 459 528 36,000  Level Chicago Center
11:24PM 40.9233 -91.4528 299° West 459 528 36,000  Level Chicago Center
11:25PM 40.9842 -91.5983 299° West 462 532 36,000  Level Chicago Center
11:26PM 41.0586 -91.7769 299° West 462 532 36,000  Level Chicago Center
11:27PM 41.1192 -91.9281 298° West 463 533 36,000  Level Chicago Center
11:28PM 41.1797 -92.0764 299° West 463 533 36,000  Level Chicago Center
11:29PM 41.2372 -92.2156 299° West 463 533 36,000  Level Chicago Center
11:30PM 41.2981 -92.3669 298° West 465 535 36,000  Level Chicago Center
11:31PM 41.3619 -92.5264 298° West 466 536 36,000  Level Chicago Center
11:32PM 41.4108 -92.6475 298° West 467 537 36,000  Level Minneapolis Center
11:33PM 41.4717 -92.8006 298° West 467 537 36,000  Level Minneapolis Center
11:34PM 41.5436 -92.9833 298° West 468 539 36,000  Level Minneapolis Center
11:35PM 41.6044 -93.1367 298° West 469 540 36,000  Level Minneapolis Center
11:36PM 41.6650 -93.2900 298° West 469 540 36,000  Level Minneapolis Center
11:37PM 41.7256 -93.4450 298° West 471 542 36,000  Level Minneapolis Center
11:38PM 41.7850 -93.5994 297° West 473 544 36,000  Level Minneapolis Center
11:39PM 41.8456 -93.7561 297° West 473 544 36,000  Level Minneapolis Center
11:40PM 41.9097 -93.9222 297° West 476 548 36,000  Level Minneapolis Center
11:41PM 41.9708 -94.0822 297° West 479 551 36,000  Level Minneapolis Center
11:42PM 42.0303 -94.2403 297° West 479 551 36,000  Level Minneapolis Center
11:43PM 42.0911 -94.3989 297° West 479 551 36,000  Level Minneapolis Center
11:44PM 42.1617 -94.5883 297° West 478 550 36,000  Level Minneapolis Center
11:45PM 42.2206 -94.7469 297° West 477 549 36,000  Level Minneapolis Center
11:46PM 42.2811 -94.9083 297° West 478 550 36,000  Level Minneapolis Center
11:47PM 42.3392 -95.0672 296° West 478 550 36,000  Level Minneapolis Center
11:48PM 42.3972 -95.2256 296° West 477 549 36,000  Level Minneapolis Center
11:49PM 42.4544 -95.3836 296° West 474 545 36,000  Level Minneapolis Center
11:50PM 42.5117 -95.5433 296° West 473 544 36,000  Level Minneapolis Center
11:51PM 42.5694 -95.7019 296° West 473 544 36,000  Level Minneapolis Center
11:52PM 42.6250 -95.8611 295° West 472 543 36,000  Level Minneapolis Center
11:53PM 42.6825 -96.0186 296° West 470 541 36,000  Level Minneapolis Center
11:54PM 42.7417 -96.1867 296° West 470 541 36,000  Level Minneapolis Center
11:55PM 42.7981 -96.3467 296° West 469 540 36,000  Level Minneapolis Center
11:56PM 42.8533 -96.5053 295° West 469 540 36,000  Level Minneapolis Center
11:57PM 42.9089 -96.6650 295° West 467 537 36,000  Level Minneapolis Center
11:58PM 42.9739 -96.8550 295° West 466 536 36,000  Level Minneapolis Center
11:59PM 43.0289 -97.0142 295° West 462 532 36,000  Level Minneapolis Center
12:00AM 43.0828 -97.1725 295° West 462 532 36,000  Level Minneapolis Center
12:01AM 43.1372 -97.3317 295° West 462 532 36,000  Level Minneapolis Center
12:02AM 43.1906 -97.4897 295° West 459 528 36,000  Level Minneapolis Center
12:03AM 43.2433 -97.6475 295° West 458 527 36,000  Level Minneapolis Center
12:04AM 43.2967 -97.8058 295° West 457 526 36,000  Level Minneapolis Center
12:05AM 43.3483 -97.9619 295° West 451 519 36,000  Level Minneapolis Center
12:06AM 43.4000 -98.1197 294° West 450 518 36,000  Level Minneapolis Center
12:07AM 43.4514 -98.2775 294° West 450 518 36,000  Level Minneapolis Center
12:08AM 43.5033 -98.4347 295° West 450 518 36,000  Level Minneapolis Center
12:09AM 43.5544 -98.5919 294° West 450 518 36,000  Level Minneapolis Center
12:10AM 43.6119 -98.7744 294° West 450 518 36,000  Level Minneapolis Center
12:11AM 43.6622 -98.9294 294° West 448 516 36,000  Level Minneapolis Center
12:12AM 43.7122 -99.0878 294° West 447 514 36,000  Level Minneapolis Center
12:13AM 43.7619 -99.2444 294° West 447 514 36,000  Level Minneapolis Center
12:14AM 43.8117 -99.4025 294° West 446 513 36,000  Level Minneapolis Center
12:15AM 43.8594 -99.5606 293° West 446 513 36,000  Level Minneapolis Center
12:16AM 43.9100 -99.7167 294° West 446 513 36,000  Level Minneapolis Center
12:17AM 43.9586 -99.8758 293° West 446 513 36,000  Level Minneapolis Center
12:18AM 44.0072 -100.0344 293° West 446 513 36,000  Level Minneapolis Center
12:19AM 44.0553 -100.1919 293° West 446 513 36,000  Level Minneapolis Center
12:20AM 44.1033 -100.3492 293° West 445 512 36,000  Level Minneapolis Center
12:21AM 44.1508 -100.5081 293° West 445 512 36,000  Level Minneapolis Center
12:23AM 44.1986 -100.6661 293° West 444 511 36,000  Level Minneapolis Center
12:24AM 44.2467 -100.8247 293° West 444 511 36,000  Level Minneapolis Center
12:25AM 44.2936 -100.9825 293° West 444 511 36,000  Level Minneapolis Center
12:26AM 44.3489 -101.1717 292° West 443 510 36,000  Level Minneapolis Center
12:27AM 44.3956 -101.3303 292° West 443 510 36,000  Level Minneapolis Center
12:28AM 44.4414 -101.4889 292° West 443 510 36,000  Level Minneapolis Center
12:29AM 44.4875 -101.6483 292° West 443 510 36,000  Level Minneapolis Center
12:29AM 44.5247 -101.7750 292° West 444 511 36,000  Level Denver Center
12:30AM 44.5697 -101.9333 292° West 442 509 36,000  Level Denver Center
12:31AM 44.6153 -102.0925 292° West 442 509 36,000  Level Denver Center
12:32AM 44.6594 -102.2522 291° West 440 506 36,000  Level Denver Center
12:33AM 44.7053 -102.4106 292° West 440 506 36,000 180 Level Denver Center
12:34AM 44.7472 -102.5667 291° West 436 502 36,400 420 Climbing Denver Center
12:35AM 44.7894 -102.7200 291° West 425 489 36,900 480 Climbing Denver Center
12:37AM 44.8317 -102.8700 292° West 420 483 37,400 480 Climbing Denver Center
12:38AM 44.8736 -103.0236 291° West 419 482 37,900 480 Climbing Denver Center
12:39AM 44.9142 -103.1764 291° West 419 482 38,400 480 Climbing Denver Center
12:39AM 44.9442 -103.2839 292° West 419 482 38,700 480 Climbing Salt Lake Center
12:40AM 44.9911 -103.4561 291° West 419 482 39,300 480 Climbing Salt Lake Center
12:41AM 45.0292 -103.6025 290° West 419 482 39,700 300 Climbing Salt Lake Center
12:42AM 45.0681 -103.7489 291° West 419 482 40,000 120 Climbing Salt Lake Center
12:43AM 45.1139 -103.9206 291° West 418 481 40,000  Level Salt Lake Center
12:44AM 45.1533 -104.0697 291° West 419 482 40,000  Level Salt Lake Center
12:45AM 45.1964 -104.2417 290° West 419 482 40,000 -60 Level Salt Lake Center
12:46AM 45.2339 -104.3897 290° West 417 480 39,900 -60 Descending Salt Lake Center
12:47AM 45.2728 -104.5431 290° West 416 479 39,900  Level Salt Lake Center
12:48AM 45.3117 -104.6933 290° West 416 479 40,000  Climbing Salt Lake Center
12:49AM 45.3497 -104.8467 289° West 414 476 40,000  Level Salt Lake Center
12:50AM 45.3892 -105.0003 290° West 414 476 40,000  Level Salt Lake Center
12:51AM 45.4267 -105.1533 289° West 414 476 40,000  Level Salt Lake Center
12:52AM 45.4728 -105.3403 289° West 415 478 40,000  Level Salt Lake Center
12:53AM 45.5100 -105.4969 289° West 416 479 40,000  Level Salt Lake Center
12:55AM 45.5475 -105.6531 289° West 416 479 40,000  Level Salt Lake Center
12:56AM 45.5850 -105.8089 289° West 417 480 40,000  Level Salt Lake Center
12:57AM 45.6233 -105.9625 290° West 415 478 40,000  Level Salt Lake Center
12:58AM 45.6589 -106.1142 289° West 409 471 40,000  Level Salt Lake Center
12:59AM 45.6942 -106.2658 288° West 406 467 40,000  Level Salt Lake Center
01:00AM 45.7258 -106.4125 287° West 395 455 40,000  Level Salt Lake Center
01:01AM 45.7611 -106.5650 288° West 396 456 40,000  Level Salt Lake Center
01:02AM 45.7983 -106.7208 289° West 407 468 40,000  Level Salt Lake Center
01:03AM 45.8422 -106.9072 289° West 410 472 40,000  Level Salt Lake Center
01:04AM 45.8778 -107.0611 288° West 410 472 40,000  Level Salt Lake Center
01:05AM 45.9117 -107.2122 288° West 406 467 40,000  Level Salt Lake Center
01:06AM 45.9458 -107.3678 288° West 411 473 40,000  Level Salt Lake Center
01:07AM 45.9808 -107.5200 288° West 408 470 40,000  Level Salt Lake Center
01:08AM 46.0147 -107.6728 288° West 407 468 40,000  Level Salt Lake Center
01:09AM 46.0475 -107.8228 288° West 400 460 40,000  Level Salt Lake Center
01:10AM 46.0806 -107.9733 288° West 399 459 40,000  Level Salt Lake Center
01:11AM 46.1136 -108.1228 288° West 399 459 40,000  Level Salt Lake Center
01:12AM 46.1461 -108.2756 287° West 399 459 40,000  Level Salt Lake Center
01:13AM 46.1844 -108.4581 287° West 400 460 40,000  Level Salt Lake Center
01:14AM 46.2167 -108.6106 287° West 400 460 40,000  Level Salt Lake Center
01:15AM 46.2486 -108.7636 287° West 400 460 40,000  Level Salt Lake Center
01:16AM 46.2808 -108.9172 287° West 400 460 40,000  Level Salt Lake Center
01:17AM 46.3125 -109.0708 287° West 400 460 40,000  Level Salt Lake Center
01:18AM 46.3442 -109.2222 287° West 399 459 40,000  Level Salt Lake Center
01:19AM 46.3744 -109.3739 286° West 396 456 40,000  Level Salt Lake Center
01:20AM 46.4053 -109.5231 287° West 391 450 40,000  Level Salt Lake Center
01:21AM 46.4339 -109.6739 285° West 390 449 40,000  Level Salt Lake Center
01:22AM 46.4631 -109.8256 286° West 391 450 40,000  Level Salt Lake Center
01:23AM 46.4931 -109.9778 286° West 391 450 40,000  Level Salt Lake Center
01:24AM 46.5314 -110.1586 287° West 391 450 40,000  Level Salt Lake Center
01:25AM 46.5603 -110.3097 286° West 391 450 40,000  Level Salt Lake Center
01:26AM 46.5900 -110.4586 286° West 390 449 40,000  Level Salt Lake Center
01:27AM 46.6131 -110.5828 285° West 388 447 40,000  Level Salt Lake Center
01:28AM 46.6486 -110.7661 286° West 390 449 40,000  Level Salt Lake Center
01:29AM 46.6772 -110.9200 285° West 391 450 40,000  Level Salt Lake Center
01:30AM 46.7058 -111.0761 285° West 398 458 40,000  Level Salt Lake Center
01:31AM 46.7347 -111.2283 286° West 394 453 40,000  Level Salt Lake Center
01:32AM 46.7631 -111.3808 285° West 393 452 40,000  Level Salt Lake Center
01:33AM 46.7903 -111.5328 285° West 391 450 40,000  Level Salt Lake Center
01:34AM 46.8181 -111.6842 285° West 389 448 40,000  Level Salt Lake Center
01:35AM 46.8439 -111.8383 284° West 388 447 40,000  Level Salt Lake Center
01:36AM 46.8697 -111.9900 284° West 388 447 40,000  Level Salt Lake Center
01:37AM 46.8972 -112.1400 285° West 387 445 40,000  Level Salt Lake Center
01:38AM 46.9247 -112.2917 285° West 387 445 40,000  Level Salt Lake Center
01:39AM 46.9500 -112.4428 284° West 385 443 40,000  Level Salt Lake Center
01:40AM 46.9767 -112.5944 285° West 384 442 40,000  Level Salt Lake Center
01:41AM 47.0019 -112.7486 284° West 386 444 40,000  Level Salt Lake Center
01:42AM 47.0281 -112.9014 284° West 387 445 40,000 -60 Level Salt Lake Center
01:43AM 47.0553 -113.0667 284° West 387 445 39,900  Descending Salt Lake Center
01:44AM 47.0814 -113.2194 284° West 386 444 40,000  Climbing Salt Lake Center
01:45AM 47.1078 -113.3747 284° West 388 447 40,000  Level Salt Lake Center
01:46AM 47.1322 -113.5311 283° West 391 450 40,000  Level Salt Lake Center
01:47AM 47.1578 -113.6858 284° West 391 450 40,000  Level Salt Lake Center
01:48AM 47.1825 -113.8381 283° West 387 445 40,000  Level Salt Lake Center
01:49AM 47.2075 -113.9950 283° West 391 450 40,000  Level Salt Lake Center
01:50AM 47.2336 -114.1525 284° West 395 455 40,000  Level Salt Lake Center
01:51AM 47.2569 -114.3083 282° West 394 453 40,000 -60 Level Salt Lake Center
01:52AM 47.2819 -114.4672 283° West 394 453 39,900 -60 Descending Salt Lake Center
01:53AM 47.3053 -114.6269 282° West 396 456 39,900  Level Salt Lake Center
01:54AM 47.3297 -114.7853 283° West 396 456 40,000  Climbing Salt Lake Center
01:56AM 47.3625 -115.0083 282° West 395 455 40,000  Level Seattle Center
01:57AM 47.3867 -115.1678 283° West 396 456 40,000  Level Seattle Center
01:58AM 47.4103 -115.3297 282° West 400 460 40,000  Level Seattle Center
01:59AM 47.4342 -115.4908 282° West 400 460 40,000  Level Seattle Center
02:00AM 47.4564 -115.6511 282° West 400 460 40,000  Level Seattle Center
02:01AM 47.4694 -115.8208 277° West 401 461 40,000  Level Seattle Center
02:02AM 47.4767 -115.9875 274° West 402 463 40,000  Level Seattle Center
02:03AM 47.4864 -116.1519 275° West 403 464 40,000  Level Seattle Center
02:04AM 47.4953 -116.3192 275° West 404 465 40,000  Level Seattle Center
02:05AM 47.5053 -116.4847 275° West 405 466 40,000  Level Seattle Center
02:06AM 47.5156 -116.6514 275° West 405 466 40,000  Level Seattle Center
02:07AM 47.5275 -116.8169 276° West 405 466 40,000  Level Seattle Center
02:08AM 47.5397 -116.9806 276° West 408 470 40,000  Level Seattle Center
02:09AM 47.5525 -117.1492 276° West 412 474 40,000  Level Seattle Center
02:10AM 47.5628 -117.3369 275° West 412 474 40,000 -60 Level Seattle Center
02:11AM 47.5739 -117.5056 276° West 412 474 39,900  Descending Seattle Center
02:12AM 47.5844 -117.6728 275° West 412 474 40,000  Climbing Seattle Center
02:13AM 47.5950 -117.8389 275° West 409 471 40,000  Level Seattle Center
02:14AM 47.6042 -118.0056 275° West 409 471 40,000  Level Seattle Center
02:15AM 47.6144 -118.1711 275° West 408 470 40,000  Level Seattle Center
02:16AM 47.6233 -118.3389 275° West 409 471 40,000  Level Seattle Center
02:17AM 47.6322 -118.5064 275° West 409 471 40,000  Level Seattle Center
02:18AM 47.6422 -118.6742 275° West 409 471 40,000  Level Seattle Center
02:19AM 47.6500 -118.8411 274° West 409 471 40,000  Level Seattle Center
02:20AM 47.6581 -119.0103 274° West 410 472 40,000  Level Seattle Center
02:21AM 47.6675 -119.1808 275° West 417 480 40,000 -540 Level Seattle Center
02:22AM 47.6747 -119.3503 274° West 414 476 39,000 -1,740 Descending Seattle Center
02:23AM 47.6828 -119.5247 274° West 424 488 36,600 -2,340 Descending Seattle Center
02:24AM 47.6900 -119.6961 274° West 421 484 34,400 -2,220 Descending Seattle Center
02:25AM 47.6956 -119.8697 273° West 424 488 32,200 -2,280 Descending Seattle Center
02:26AM 47.7033 -120.0458 274° West 429 494 29,900 -2,280 Descending Seattle Center
02:27AM 47.7111 -120.2244 274° West 433 498 27,700 -2,280 Descending Seattle Center
02:28AM 47.7181 -120.4033 273° West 435 501 25,400 -2,340 Descending Seattle Center
02:29AM 47.7267 -120.5681 275° West 402 463 23,100 -2,280 Descending Seattle Center
02:30AM 47.7319 -120.7183 273° West 370 426 20,900 -2,340 Descending Seattle Center
02:31AM 47.7400 -120.8789 274° West 358 412 18,500 -2,280 Descending Seattle Center
02:32AM 47.7422 -121.0214 271° West 342 394 16,400 -2,220 Descending Seattle Center
02:33AM 47.7494 -121.1472 275° West 308 354 14,200 -2,100 Descending Seattle Center
02:34AM 47.7514 -121.2744 271° West 287 330 12,200 -1,080 Descending Seattle Center
02:35AM 47.7553 -121.3906 273° West 281 323 12,100 -60 Descending Seattle Center
02:36AM 47.7575 -121.5044 272° West 277 319 12,100 -120 Level Seattle Center
02:36AM 47.7589 -121.5328 274° West 277 319 12,000  Descending Seattle Center
02:37AM 47.7608 -121.6178 272° West 275 316 12,100 -900 Climbing Seattle Center
02:38AM 47.7644 -121.7419 273° West 306 352 10,400 -1,080 Descending Seattle Center
02:39AM 47.7569 -121.8733 265° West 319 367 10,000 -240 Descending Seattle Center
02:40AM 47.6933 -121.9664 225° Southwest 322 371 10,000  Level Seattle Center
02:41AM 47.6311 -122.0481 222° Southwest 272 313 10,100  Climbing Seattle Center
02:42AM 47.5767 -122.1194 222° Southwest 262 302 10,100 -600 Level Seattle Center
02:43AM 47.5056 -122.1567 199° South 282 325 8,900 -1,500 Descending Seattle Center
02:44AM 47.4336 -122.1494 176° South 250 288 7,100 -1,860 Descending Seattle Center
02:45AM 47.3750 -122.1453 177° South 229 264 5,200 -1,020 Descending Seattle Center
02:46AM 47.3181 -122.1414 177° South 204 235 5,100 -60 Descending Seattle Center
02:47AM 47.2572 -122.1356 176° South 202 232 5,100 -60 Level Seattle Center
02:48AM 47.1983 -122.1328 178° South 211 243 5,000 -600 Descending Seattle Center
02:49AM 47.1772 -122.2042 247° West 201 231 4,000 -600 Descending Seattle Center
02:50AM 47.2014 -122.2556 305° West 168 193 3,900 -420 Descending Seattle Center
02:51AM 47.2442 -122.2947 328° Northwest 179 206 3,200 -420 Descending Seattle Center
02:52AM 47.2808 -122.3128 342° North 146 168 3,100 -300 Descending Seattle Center
02:53AM 47.3217 -122.3111 North 146 168 2,600 -600 Descending Seattle Center
02:54AM 47.3589 -122.3117 359° North 140 161 1,900 -660 Descending Seattle Center
02:55AM 47.3936 -122.3114 360° North 129 148 1,300 -660 Descending Seattle Center
02:56AM 47.4281 -122.3119 359° North 125 144 600 -480 Descending Seattle Center
02:57AM 47.4656 -122.3125 359° North 125 144 400 -240 Descending Seattle Center
02:59AM 47.4499 -122.3118 176° South  Level Estimated